TimeEDT,TemperatureF,Dew PointF,Humidity,Sea Level PressureIn,VisibilityMPH,Wind Direction,Wind SpeedMPH,Gust SpeedMPH,PrecipitationIn,Events,Conditions,WindDirDegrees,DateUTC
12:53 AM,39.0,36.0,89,30.12,10.0,Calm,Calm,-,N/A,,Clear,0,2011-11-03 04:53:00
1:53 AM,39.0,36.0,89,30.10,10.0,Calm,Calm,-,N/A,,Clear,0,2011-11-03 05:53:00
2:53 AM,39.0,36.0,89,30.08,10.0,Calm,Calm,-,N/A,,Clear,0,2011-11-03 06:53:00
3:53 AM,39.0,35.1,86,30.07,10.0,Calm,Calm,-,N/A,,Clear,0,2011-11-03 07:53:00
4:53 AM,46.9,35.1,63,30.06,10.0,SSW,4.6,-,N/A,,Clear,200,2011-11-03 08:53:00
5:53 AM,43.0,35.1,74,30.07,10.0,Calm,Calm,-,N/A,,Clear,0,2011-11-03 09:53:00
6:53 AM,39.0,34.0,82,30.06,10.0,ESE,3.5,-,N/A,,Clear,120,2011-11-03 10:53:00
7:53 AM,39.0,34.0,82,30.06,10.0,SSE,3.5,-,N/A,,Clear,150,2011-11-03 11:53:00
8:53 AM,42.1,36.0,79,30.07,10.0,Calm,Calm,-,N/A,,Clear,0,2011-11-03 12:53:00
9:53 AM,50.0,39.0,66,30.06,10.0,SSE,3.5,-,N/A,,Clear,160,2011-11-03 13:53:00
10:53 AM,57.0,39.0,51,30.04,10.0,South,4.6,-,N/A,,Clear,170,2011-11-03 14:53:00
11:53 AM,61.0,37.0,41,30.03,10.0,SSW,10.4,-,N/A,,Clear,210,2011-11-03 15:53:00
12:53 PM,61.0,37.9,42,29.99,10.0,South,10.4,-,N/A,,Clear,180,2011-11-03 16:53:00
1:53 PM,61.0,41.0,48,29.96,10.0,WSW,4.6,-,N/A,,Mostly Cloudy,250,2011-11-03 17:53:00
2:53 PM,61.0,42.1,50,29.94,10.0,Calm,Calm,-,N/A,,Overcast,0,2011-11-03 18:53:00
3:53 PM,63.0,39.9,43,29.91,10.0,NNE,3.5,-,N/A,,Mostly Cloudy,30,2011-11-03 19:53:00
4:53 PM,61.0,42.1,50,29.90,10.0,Calm,Calm,-,N/A,,Mostly Cloudy,0,2011-11-03 20:53:00
5:53 PM,57.9,44.1,60,29.88,10.0,North,5.8,-,N/A,,Overcast,10,2011-11-03 21:53:00
6:53 PM,57.9,41.0,53,29.90,10.0,East,5.8,-,N/A,,Overcast,80,2011-11-03 22:53:00
7:53 PM,57.0,41.0,55,29.92,10.0,Calm,Calm,-,N/A,,Overcast,0,2011-11-03 23:53:00
8:53 PM,54.0,43.0,66,29.91,10.0,Calm,Calm,-,N/A,,Overcast,0,2011-11-04 00:53:00
10:53 PM,54.0,41.0,62,29.94,10.0,NNE,8.1,-,N/A,,Overcast,20,2011-11-04 02:53:00
11:53 PM,53.1,42.1,66,29.94,10.0,North,5.8,-,N/A,,Overcast,10,2011-11-04 03:53:00